createdAt,value
2022-09-30T00:01:29.187Z,3.50
2022-09-30T00:04:30.591Z,3.73
2022-09-30T00:07:31.986Z,3.63
2022-09-30T00:10:33.372Z,3.80
2022-09-30T00:13:38.393Z,3.40
2022-09-30T00:16:39.847Z,3.67
2022-09-30T00:19:41.268Z,3.90
2022-09-30T00:22:42.648Z,3.90
2022-09-30T00:25:44.050Z,4.00
2022-09-30T00:28:49.026Z,4.37
2022-09-30T00:31:50.426Z,3.80
2022-09-30T00:34:52.023Z,3.60
2022-09-30T00:37:55.092Z,4.00
2022-09-30T00:40:56.895Z,4.03
2022-09-30T00:43:58.545Z,3.93
2022-09-30T00:46:59.981Z,3.70
2022-09-30T00:50:12.149Z,3.77
2022-09-30T00:53:18.915Z,3.93
2022-09-30T00:56:24.757Z,3.33
2022-09-30T00:59:31.252Z,3.53
2022-09-30T01:02:33.070Z,3.70
2022-09-30T01:05:36.099Z,3.90
2022-09-30T01:08:40.392Z,4.27
2022-09-30T01:11:41.794Z,3.80
2022-09-30T01:14:48.424Z,4.07
2022-09-30T01:18:18.933Z,4.23
2022-09-30T01:21:38.512Z,3.90
2022-09-30T01:25:09.614Z,4.10
2022-09-30T01:28:32.210Z,4.17
2022-09-30T01:32:03.287Z,3.93
2022-09-30T01:35:30.168Z,4.40
2022-09-30T01:39:02.403Z,3.97
2022-09-30T01:42:31.513Z,4.30
2022-09-30T01:45:44.873Z,3.40
2022-09-30T01:48:59.055Z,3.37
2022-09-30T01:52:03.137Z,4.20
2022-09-30T01:55:17.360Z,3.87
2022-09-30T01:58:36.816Z,3.67
2022-09-30T02:01:44.032Z,3.53
2022-09-30T02:04:52.156Z,3.20
2022-09-30T02:08:00.936Z,4.23
2022-09-30T02:11:12.024Z,3.73
2022-09-30T02:14:25.765Z,3.90
2022-09-30T02:17:33.011Z,4.23
2022-09-30T02:20:40.708Z,3.63
2022-09-30T02:23:46.914Z,3.73
2022-09-30T02:26:49.590Z,3.73
2022-09-30T02:29:57.098Z,3.73
2022-09-30T02:33:10.738Z,3.93
2022-09-30T02:36:21.234Z,3.70
2022-09-30T02:39:27.837Z,4.07
2022-09-30T02:42:30.978Z,3.60
2022-09-30T02:45:46.139Z,3.30
2022-09-30T02:49:13.794Z,3.73
2022-09-30T02:52:41.967Z,3.90
2022-09-30T02:56:05.318Z,4.00
2022-09-30T02:59:06.766Z,3.20
2022-09-30T03:02:08.250Z,3.60
2022-09-30T03:05:10.707Z,3.50
2022-09-30T03:08:12.156Z,3.67
2022-09-30T03:11:34.788Z,3.47
2022-09-30T03:14:55.940Z,3.47
2022-09-30T03:18:22.512Z,3.90
2022-09-30T03:21:37.495Z,3.13
2022-09-30T03:24:41.975Z,2.90
2022-09-30T03:27:51.796Z,2.67
2022-09-30T03:31:12.153Z,3.10
2022-09-30T03:34:20.418Z,2.73
2022-09-30T03:37:46.612Z,2.57
2022-09-30T03:41:06.560Z,2.83
2022-09-30T03:44:17.205Z,2.87
2022-09-30T03:47:21.468Z,3.10
2022-09-30T03:50:25.710Z,2.87
2022-09-30T03:53:28.481Z,2.90
2022-09-30T03:56:31.582Z,2.80
2022-09-30T03:59:33.003Z,3.47
2022-09-30T04:02:36.658Z,3.10
2022-09-30T04:05:38.059Z,3.10
2022-09-30T04:08:39.510Z,3.00
2022-09-30T04:11:41.282Z,3.17
2022-09-30T04:14:42.738Z,2.77
2022-09-30T04:17:44.118Z,2.87
2022-09-30T04:20:45.526Z,3.77
2022-09-30T04:23:47.012Z,3.00
2022-09-30T04:26:48.866Z,2.90
2022-09-30T04:29:50.275Z,2.40
2022-09-30T04:32:51.664Z,3.00
2022-09-30T04:35:57.073Z,2.17
2022-09-30T04:38:58.505Z,2.40
2022-09-30T04:41:59.882Z,2.67
2022-09-30T04:45:01.733Z,2.50
2022-09-30T04:48:03.157Z,2.60
2022-09-30T04:51:04.683Z,2.67
2022-09-30T04:54:06.066Z,2.50
2022-09-30T04:57:07.436Z,2.20
2022-09-30T05:00:10.012Z,2.60
2022-09-30T05:03:11.442Z,2.20
2022-09-30T05:06:13.352Z,2.50
2022-09-30T05:09:14.843Z,2.30
2022-09-30T05:12:16.284Z,2.50
2022-09-30T05:15:17.884Z,3.20
2022-09-30T05:18:20.509Z,2.87
2022-09-30T05:21:22.049Z,2.90
2022-09-30T05:24:23.528Z,2.83
2022-09-30T05:27:25.035Z,3.00
2022-09-30T05:30:26.469Z,2.80
2022-09-30T05:33:29.430Z,2.90
2022-09-30T05:36:30.873Z,3.03
2022-09-30T05:39:32.466Z,3.10
2022-09-30T05:42:36.170Z,3.10
2022-09-30T05:45:38.408Z,3.63
2022-09-30T05:48:40.406Z,5.47
2022-09-30T05:51:42.104Z,4.10
2022-09-30T05:54:43.472Z,3.70
2022-09-30T05:57:48.942Z,3.47
2022-09-30T06:00:50.640Z,3.00
2022-09-30T06:03:52.069Z,3.13
2022-09-30T06:06:53.525Z,3.70
2022-09-30T06:09:55.040Z,7.53
2022-09-30T06:12:59.028Z,6.60
2022-09-30T06:16:02.027Z,5.40
2022-09-30T06:19:03.525Z,5.23
2022-09-30T06:22:04.903Z,3.70
2022-09-30T06:25:07.139Z,3.57
2022-09-30T06:28:08.522Z,3.80
2022-09-30T06:31:11.193Z,3.50
2022-09-30T06:34:13.662Z,3.23
2022-09-30T06:37:15.974Z,3.10
2022-09-30T06:40:18.062Z,3.43
2022-09-30T06:43:20.800Z,2.90
2022-09-30T06:46:27.479Z,2.70
2022-09-30T06:49:44.699Z,2.80
2022-09-30T06:52:49.169Z,2.50
2022-09-30T06:55:56.323Z,3.20
2022-09-30T06:58:57.740Z,3.63
2022-09-30T07:01:59.193Z,4.80
2022-09-30T07:05:03.509Z,5.80
2022-09-30T07:08:05.802Z,6.30
2022-09-30T07:11:14.521Z,7.90
2022-09-30T07:14:15.939Z,9.23
2022-09-30T07:17:17.392Z,9.97
2022-09-30T07:20:19.199Z,11.70
2022-09-30T07:23:26.406Z,10.30
2022-09-30T07:26:28.836Z,11.03
2022-09-30T07:29:40.385Z,15.10
2022-09-30T07:32:53.425Z,14.00
2022-09-30T07:36:00.383Z,14.00
2022-09-30T07:39:07.085Z,13.10
2022-09-30T07:42:08.765Z,13.60
2022-09-30T07:45:10.880Z,15.10
2022-09-30T07:48:32.237Z,15.63
2022-09-30T07:51:40.065Z,15.97
2022-09-30T07:54:46.660Z,15.13
2022-09-30T07:57:51.114Z,16.37
2022-09-30T08:00:52.511Z,15.80
2022-09-30T08:03:56.546Z,17.13
2022-09-30T08:07:00.284Z,17.43
2022-09-30T08:10:01.686Z,16.90
2022-09-30T08:13:05.702Z,16.20
2022-09-30T08:16:08.544Z,16.83
2022-09-30T08:19:16.131Z,17.67
2022-09-30T08:22:17.623Z,16.87
2022-09-30T08:25:19.016Z,16.30
2022-09-30T08:28:20.388Z,15.43
2022-09-30T08:31:23.800Z,15.90
2022-09-30T08:34:25.539Z,14.93
2022-09-30T08:37:27.039Z,14.83
2022-09-30T08:40:31.808Z,14.13
2022-09-30T08:43:45.776Z,15.13
2022-09-30T08:46:58.627Z,14.90
2022-09-30T08:50:06.267Z,15.90
2022-09-30T08:53:11.946Z,14.80
2022-09-30T08:56:24.419Z,15.23
2022-09-30T08:59:46.440Z,14.10
2022-09-30T09:02:59.397Z,13.47
2022-09-30T09:06:29.618Z,15.23
2022-09-30T09:09:48.078Z,14.17
2022-09-30T09:12:49.395Z,14.60
2022-09-30T09:16:30.102Z,15.33
2022-09-30T09:19:42.166Z,14.40
2022-09-30T09:22:46.234Z,15.03
2022-09-30T09:25:50.794Z,14.80
2022-09-30T09:29:21.734Z,14.23
2022-09-30T09:32:26.216Z,13.77
2022-09-30T09:35:40.212Z,12.67
2022-09-30T09:38:41.667Z,11.00
2022-09-30T09:42:23.953Z,9.10
2022-09-30T09:45:36.221Z,9.10
2022-09-30T09:48:38.022Z,10.03
2022-09-30T09:51:53.277Z,8.23
2022-09-30T09:54:58.473Z,9.10
2022-09-30T09:58:14.883Z,7.90
2022-09-30T10:01:42.528Z,7.07
2022-09-30T10:04:50.970Z,6.77
2022-09-30T10:08:12.520Z,6.80
2022-09-30T10:11:24.552Z,7.00
2022-09-30T10:14:25.998Z,6.50
2022-09-30T10:17:33.801Z,6.57
2022-09-30T10:20:36.948Z,6.30
2022-09-30T10:23:40.224Z,6.37
2022-09-30T10:26:48.528Z,6.20
2022-09-30T10:29:50.840Z,6.90
2022-09-30T10:32:52.621Z,6.67
2022-09-30T10:36:04.014Z,6.63
2022-09-30T10:39:26.882Z,7.00
2022-09-30T10:42:31.623Z,6.90
2022-09-30T10:45:38.561Z,6.47
2022-09-30T10:48:41.211Z,6.17
2022-09-30T10:51:45.957Z,5.57
2022-09-30T10:54:53.855Z,6.20
2022-09-30T10:58:01.087Z,6.50
2022-09-30T11:01:15.165Z,6.30
2022-09-30T11:04:28.057Z,5.90
2022-09-30T11:07:41.011Z,6.50
2022-09-30T11:10:47.117Z,6.30
2022-09-30T11:13:56.896Z,6.87
2022-09-30T11:17:18.105Z,6.87
2022-09-30T11:20:29.816Z,6.90
2022-09-30T11:23:38.438Z,7.00
2022-09-30T11:27:03.733Z,6.70
2022-09-30T11:30:31.473Z,6.07
2022-09-30T11:33:53.335Z,6.00
2022-09-30T11:36:54.710Z,6.20
2022-09-30T11:40:38.204Z,5.80
2022-09-30T11:44:01.401Z,5.57
2022-09-30T11:47:30.353Z,6.27
2022-09-30T11:50:56.827Z,5.87
2022-09-30T11:54:23.408Z,5.20
2022-09-30T11:57:35.944Z,4.70
2022-09-30T12:00:45.464Z,4.60
2022-09-30T12:04:03.116Z,4.37
2022-09-30T12:07:15.117Z,4.47
2022-09-30T12:10:21.522Z,4.00
2022-09-30T12:13:37.090Z,3.30
2022-09-30T12:16:39.569Z,3.50
2022-09-30T12:19:47.389Z,3.77
2022-09-30T12:22:51.570Z,4.23
2022-09-30T12:25:59.238Z,4.87
2022-09-30T12:29:26.949Z,5.37
2022-09-30T12:33:05.907Z,5.27
2022-09-30T12:36:30.469Z,5.40
2022-09-30T12:39:44.358Z,4.70
2022-09-30T12:43:23.720Z,3.53
2022-09-30T12:46:59.799Z,4.57
2022-09-30T12:50:06.067Z,4.30
2022-09-30T12:53:23.992Z,4.20
2022-09-30T12:56:28.830Z,4.10
2022-09-30T12:59:34.445Z,3.23
2022-09-30T13:02:42.404Z,3.37
2022-09-30T13:05:52.741Z,3.33
2022-09-30T13:08:57.125Z,3.50
2022-09-30T13:11:58.451Z,3.83
2022-09-30T13:15:42.191Z,3.53
2022-09-30T13:18:44.997Z,3.23
2022-09-30T13:21:46.964Z,3.20
2022-09-30T13:24:57.726Z,3.63
2022-09-30T13:28:14.365Z,3.70
2022-09-30T13:31:19.713Z,3.20
2022-09-30T13:34:32.825Z,3.20
2022-09-30T13:37:37.957Z,3.23
2022-09-30T13:41:02.691Z,3.23
2022-09-30T13:44:23.917Z,3.43
2022-09-30T13:47:35.121Z,3.20
2022-09-30T13:50:52.761Z,3.20
2022-09-30T13:53:58.373Z,3.40
2022-09-30T13:57:04.973Z,3.07
2022-09-30T14:00:12.848Z,3.30
2022-09-30T14:04:06.339Z,3.13
2022-09-30T14:07:26.269Z,2.40
2022-09-30T14:10:57.124Z,2.80
2022-09-30T14:14:13.334Z,3.10
2022-09-30T14:17:36.789Z,2.33
2022-09-30T14:21:01.881Z,3.00
2022-09-30T14:24:10.801Z,3.30
2022-09-30T14:27:23.637Z,2.60
2022-09-30T14:30:26.542Z,3.17
2022-09-30T14:33:28.373Z,2.50
2022-09-30T14:36:30.122Z,2.13
2022-09-30T14:39:32.858Z,2.13
2022-09-30T14:42:38.672Z,2.60
2022-09-30T14:45:44.643Z,2.30
2022-09-30T14:48:48.420Z,2.57
2022-09-30T14:51:50.029Z,2.20
2022-09-30T14:54:51.458Z,2.30
2022-09-30T14:57:55.729Z,2.17
2022-09-30T15:00:58.020Z,2.50
2022-09-30T15:04:04.858Z,2.77
2022-09-30T15:07:11.860Z,2.33
2022-09-30T15:10:22.965Z,2.20
2022-09-30T15:13:28.120Z,2.40
2022-09-30T15:16:31.639Z,2.23
2022-09-30T15:19:42.077Z,2.10
2022-09-30T15:22:43.982Z,2.10
2022-09-30T15:25:45.943Z,2.37
2022-09-30T15:28:47.918Z,1.80
2022-09-30T15:31:58.309Z,1.50
2022-09-30T15:35:08.321Z,1.50
2022-09-30T15:38:20.962Z,1.43
2022-09-30T15:41:22.461Z,1.57
2022-09-30T15:49:38.146Z,1.60
2022-09-30T15:52:40.379Z,1.53
2022-09-30T15:55:49.949Z,1.73
2022-09-30T15:58:55.738Z,2.00
2022-09-30T16:01:57.906Z,1.70
2022-09-30T16:05:05.251Z,1.70
2022-09-30T16:08:10.390Z,1.60
2022-09-30T16:11:31.066Z,1.90
2022-09-30T16:14:40.058Z,1.73
2022-09-30T16:17:49.896Z,2.03
2022-09-30T16:21:03.148Z,2.00
2022-09-30T16:24:04.721Z,1.70
2022-09-30T16:27:29.800Z,1.70
2022-09-30T16:30:32.189Z,1.77
2022-09-30T16:33:38.099Z,1.97
2022-09-30T16:36:39.510Z,2.00
2022-09-30T16:39:41.100Z,1.80
2022-09-30T16:42:42.682Z,2.20
2022-09-30T16:45:44.244Z,2.10
2022-09-30T16:48:45.656Z,1.83
2022-09-30T16:51:47.095Z,1.93
2022-09-30T16:54:48.558Z,2.23
2022-09-30T16:57:50.255Z,2.00
2022-09-30T17:00:52.276Z,2.00
2022-09-30T17:03:55.827Z,2.20
2022-09-30T17:06:58.234Z,4.00
2022-09-30T17:09:59.633Z,4.47
2022-09-30T17:13:02.204Z,3.40
2022-09-30T17:16:04.304Z,3.30
2022-09-30T17:19:05.756Z,3.17
2022-09-30T17:22:07.136Z,2.73
2022-09-30T17:25:09.743Z,2.57
2022-09-30T17:28:13.263Z,2.40
2022-09-30T17:31:15.018Z,2.37
2022-09-30T17:34:16.632Z,2.50
2022-09-30T17:37:18.857Z,2.70
2022-09-30T17:40:39.209Z,2.40
2022-09-30T17:43:43.076Z,2.70
2022-09-30T17:46:46.682Z,2.87
2022-09-30T17:49:48.239Z,3.30
2022-09-30T17:52:49.672Z,3.40
2022-09-30T17:56:02.157Z,3.20
2022-09-30T17:59:03.593Z,3.30
2022-09-30T18:02:05.406Z,3.03
2022-09-30T18:05:07.415Z,3.00
2022-09-30T18:08:11.993Z,2.97
2022-09-30T18:11:19.844Z,3.07
2022-09-30T18:14:21.230Z,3.20
2022-09-30T18:17:23.622Z,3.67
2022-09-30T18:20:25.697Z,3.93
2022-09-30T18:23:27.223Z,4.57
2022-09-30T18:26:33.391Z,3.40
2022-09-30T18:29:37.230Z,3.17
2022-09-30T18:32:39.616Z,2.90
2022-09-30T18:35:41.998Z,3.50
2022-09-30T18:38:43.812Z,3.53
2022-09-30T18:41:45.990Z,4.30
2022-09-30T18:44:48.719Z,3.20
2022-09-30T18:47:55.396Z,3.13
2022-09-30T18:51:04.931Z,3.30
2022-09-30T18:54:06.543Z,2.80
2022-09-30T18:57:08.106Z,3.20
2022-09-30T19:00:11.137Z,3.60
2022-09-30T19:03:16.029Z,4.70
2022-09-30T19:06:18.816Z,5.57
2022-09-30T19:09:20.378Z,5.60
2022-09-30T19:12:22.370Z,6.40
2022-09-30T19:15:23.921Z,6.00
2022-09-30T19:18:25.302Z,6.47
2022-09-30T19:21:27.173Z,5.83
2022-09-30T19:24:28.714Z,6.37
2022-09-30T19:27:30.255Z,6.47
2022-09-30T19:30:31.794Z,6.07
2022-09-30T19:33:35.199Z,6.80
2022-09-30T19:36:50.319Z,6.37
2022-09-30T19:39:53.181Z,6.60
2022-09-30T19:42:54.566Z,6.00
2022-09-30T19:46:01.375Z,7.97
2022-09-30T19:49:02.846Z,6.67
2022-09-30T19:52:12.131Z,6.13
2022-09-30T19:55:17.110Z,9.03
2022-09-30T19:58:18.719Z,6.83
2022-09-30T20:01:22.305Z,6.77
2022-09-30T20:04:24.601Z,6.47
2022-09-30T20:07:28.210Z,6.27
2022-09-30T20:10:29.591Z,6.10
2022-09-30T20:13:31.242Z,7.03
2022-09-30T20:16:32.729Z,7.30
2022-09-30T20:19:34.190Z,6.97
2022-09-30T20:22:35.780Z,7.07
2022-09-30T20:25:38.269Z,7.37
2022-09-30T20:28:40.175Z,6.93
2022-09-30T20:31:42.889Z,7.80
2022-09-30T20:34:45.389Z,7.20
2022-09-30T20:37:46.851Z,7.30
2022-09-30T20:40:56.484Z,8.13
2022-09-30T20:43:58.884Z,9.17
2022-09-30T20:47:00.913Z,8.70
2022-09-30T20:50:02.307Z,8.17
2022-09-30T20:53:07.338Z,8.70
2022-09-30T20:56:11.772Z,8.50
2022-09-30T20:59:13.688Z,9.60
2022-09-30T21:02:15.332Z,9.37
2022-09-30T21:05:16.741Z,9.10
2022-09-30T21:08:18.378Z,9.83
2022-09-30T21:11:21.274Z,9.87
2022-09-30T21:14:22.657Z,9.93
2022-09-30T21:17:24.093Z,8.23
2022-09-30T21:20:25.517Z,9.83
2022-09-30T21:23:31.311Z,12.40
2022-09-30T21:26:32.696Z,15.47
2022-09-30T21:29:34.101Z,14.80
2022-09-30T21:32:35.499Z,14.20
2022-09-30T21:35:36.880Z,10.80
2022-09-30T21:38:38.574Z,10.20
2022-09-30T21:41:40.639Z,13.53
2022-09-30T21:44:42.245Z,10.60
2022-09-30T21:47:43.614Z,10.17
2022-09-30T21:50:45.006Z,10.23
2022-09-30T21:53:46.774Z,9.00
2022-09-30T21:56:48.540Z,10.43
2022-09-30T21:59:50.638Z,12.67
2022-09-30T22:02:52.058Z,10.63
2022-09-30T22:05:54.575Z,10.40
2022-09-30T22:08:57.070Z,9.67
2022-09-30T22:11:58.652Z,8.90
2022-09-30T22:15:00.046Z,8.30
2022-09-30T22:18:01.505Z,7.50
2022-09-30T22:21:09.162Z,7.50
2022-09-30T22:24:10.623Z,7.13
2022-09-30T22:27:14.080Z,7.80
2022-09-30T22:30:15.628Z,7.97
2022-09-30T22:33:35.700Z,8.13
2022-09-30T22:36:56.561Z,7.07
2022-09-30T22:40:00.861Z,7.20
2022-09-30T22:43:04.205Z,6.93
2022-09-30T22:46:08.023Z,7.13
2022-09-30T22:49:10.262Z,6.80
2022-09-30T22:52:12.830Z,7.17
2022-09-30T22:55:15.006Z,7.13
2022-09-30T22:58:16.448Z,7.03
2022-09-30T23:01:17.844Z,6.67
2022-09-30T23:04:19.510Z,7.20
2022-09-30T23:07:20.948Z,6.53
2022-09-30T23:10:22.341Z,7.43
2022-09-30T23:13:23.744Z,7.27
2022-09-30T23:16:25.230Z,6.83
2022-09-30T23:19:26.663Z,6.60
2022-09-30T23:22:28.058Z,6.90
2022-09-30T23:25:29.436Z,6.33
2022-09-30T23:28:31.800Z,6.67
2022-09-30T23:31:33.904Z,6.07
2022-09-30T23:34:35.516Z,6.07
2022-09-30T23:37:36.897Z,6.07
2022-09-30T23:40:48.583Z,6.70
2022-09-30T23:43:49.954Z,6.00
2022-09-30T23:47:09.945Z,6.27
2022-09-30T23:50:12.022Z,5.87
2022-09-30T23:53:13.433Z,5.63
2022-09-30T23:56:17.586Z,5.47
2022-09-30T23:59:19.263Z,5.47
